Íslenskir flugvellir

Veldu flugvelli í þeirri röð sem þeir eiga að birtast og styddu á hnappinn

Uppfært síðast 03.08.2020 - kl. 18:36

SIGMET síðustu 6 klst.

Engin SIGMET skeyti bárust síðustu 6 klst.

Egilsstaðir

METAR síðustu 3 klst

TímiSkeyti
2020-08-03 18.00METAR BIEG 031800Z 36011KT 9999 -DZ FEW010 SCT069 BKN086 10/09 Q1000
2020-08-03 17.00METAR BIEG 031700Z 36011KT 9999 FEW010 SCT060 BKN120 11/09 Q1000
2020-08-03 16.00METAR BIEG 031600Z 36012KT 9999 SCT010 BKN060 BKN120 11/09 Q1000

TAF

TAFBIEG2020-08-03 16.21Z03181801010KT 9000 -DZ FEW012 SCT020 BKN035 TX13/0415Z TN07/0403Z BECMG 0318/0320 OVC010 TEMPO 0322/0409 0500 FG BKN002 BECMG 0412/0415 13012KT BKN030

Allur vindur er réttvísandi bæði í Metar og frá sjálfvirkum veðurstöðvum




Aðrir tengdir vefir



Þetta vefsvæði byggir á Eplica